Time;durP1;ratioP1;P1;durP2;ratioP2;P2;SDS_P1;SDS_P2;PMS_P1;PMS_P2;Temp;Humidity;BMP_temperature;BMP_pressure;BME280_temperature;BME280_humidity;BME280_pressure;Samples;Min_cycle;Max_cycle;Signal;HPM_P1;HPM_P2
2022/10/10 00:01:13;;;;;;;11.23;6.70;;;;;;;;;;4864088;29;20214;-77
2022/10/10 00:03:39;;;;;;;9.23;7.00;;;;;;;;;;4832606;29;20201;-77
2022/10/10 00:06:05;;;;;;;10.60;7.20;;;;;;;;;;4848793;29;20249;-77
2022/10/10 00:08:31;;;;;;;10.90;6.73;;;;;;;;;;4832545;29;20235;-77
2022/10/10 00:10:57;;;;;;;9.40;6.80;;;;;;;;;;4832842;29;20215;-77
2022/10/10 00:13:23;;;;;;;11.03;7.10;;;;;;;;;;4833976;29;20265;-77
2022/10/10 00:15:49;;;;;;;11.00;7.30;;;;;;;;;;4848474;29;20194;-86
2022/10/10 00:18:15;;;;;;;13.33;6.73;;;;;;;;;;4848636;29;20243;-87
2022/10/10 00:20:41;;;;;;;9.37;7.13;;;;;;;;;;4847892;29;20206;-86
2022/10/10 00:23:07;;;;;;;11.63;6.33;;;;;;;;;;4847979;29;20198;-80
2022/10/10 00:25:33;;;;;;;7.17;6.20;;;;;;;;;;4847836;29;20301;-79
2022/10/10 00:28:03;;;;;;;7.23;6.47;;;;;;;;;;4839984;29;20194;-79
2022/10/10 00:30:29;;;;;;;8.20;6.20;;;;;;;;;;4833255;29;20194;-77
2022/10/10 00:32:57;;;;;;;9.00;6.60;;;;;;;;;;4864233;29;20187;-87
2022/10/10 00:35:23;;;;;;;8.03;6.07;;;;;;;;;;4848548;29;20219;-87
2022/10/10 00:37:49;;;;;;;10.53;6.70;;;;;;;;;;4819511;29;20226;-87
2022/10/10 00:40:15;;;;;;;10.90;6.67;;;;;;;;;;4844761;29;20298;-80
2022/10/10 00:42:41;;;;;;;8.87;6.50;;;;;;;;;;4831956;29;20190;-80
2022/10/10 00:45:19;;;;;;;8.03;6.67;;;;;;;;;;4864078;29;20329;-80
2022/10/10 00:47:45;;;;;;;10.13;6.23;;;;;;;;;;4863697;29;20192;-87
2022/10/10 00:50:12;;;;;;;8.27;7.00;;;;;;;;;;4864154;29;20258;-86
2022/10/10 00:52:38;;;;;;;7.83;7.00;;;;;;;;;;4835258;29;20243;-87
2022/10/10 00:55:04;;;;;;;10.13;7.20;;;;;;;;;;4843010;29;20191;-87
2022/10/10 00:57:30;;;;;;;11.30;7.10;;;;;;;;;;4832150;29;20195;-87
2022/10/10 00:59:57;;;;;;;9.53;7.13;;;;;;;;;;4863772;29;20259;-86
2022/10/10 01:02:23;;;;;;;10.83;7.10;;;;;;;;;;4863953;29;20270;-87
2022/10/10 01:04:49;;;;;;;9.83;7.17;;;;;;;;;;4863821;29;20226;-80
2022/10/10 01:07:20;;;;;;;9.17;7.10;;;;;;;;;;4846920;29;20202;-80
2022/10/10 01:09:47;;;;;;;10.93;7.30;;;;;;;;;;4863479;29;20190;-87
2022/10/10 01:12:20;;;;;;;10.40;7.00;;;;;;;;;;4847407;29;20197;-88
2022/10/10 01:15:06;;;;;;;9.60;6.80;;;;;;;;;;4847641;29;20278;-77
2022/10/10 01:17:32;;;;;;;9.57;6.63;;;;;;;;;;4858802;29;20250;-77
2022/10/10 01:20:10;;;;;;;10.57;7.00;;;;;;;;;;4855079;29;20286;-77
2022/10/10 01:22:54;;;;;;;7.53;6.53;;;;;;;;;;4863851;29;20190;-87
2022/10/10 01:25:27;;;;;;;10.27;6.50;;;;;;;;;;4863509;29;20238;-87
2022/10/10 01:28:01;;;;;;;9.23;6.47;;;;;;;;;;4863738;29;20225;-86
2022/10/10 01:30:28;;;;;;;8.90;6.27;;;;;;;;;;4863403;29;20272;-87
2022/10/10 01:33:01;;;;;;;7.60;6.07;;;;;;;;;;4835191;29;20191;-77
2022/10/10 01:35:29;;;;;;;8.30;5.93;;;;;;;;;;4844984;29;20180;-77
2022/10/10 01:38:14;;;;;;;8.33;6.50;;;;;;;;;;4865564;29;20251;-87
2022/10/10 01:41:01;;;;;;;8.10;6.03;;;;;;;;;;4862119;29;20191;-87
2022/10/10 01:43:29;;;;;;;8.00;6.10;;;;;;;;;;4846701;29;20286;-80
2022/10/10 01:45:55;;;;;;;9.27;6.40;;;;;;;;;;4862952;29;20226;-80
2022/10/10 01:48:27;;;;;;;8.13;6.10;;;;;;;;;;4880764;29;20194;-77
2022/10/10 01:51:16;;;;;;;7.87;6.13;;;;;;;;;;4865081;29;20230;-86
2022/10/10 01:53:51;;;;;;;6.77;5.70;;;;;;;;;;4846411;29;20242;-81
2022/10/10 01:56:25;;;;;;;7.80;5.93;;;;;;;;;;4862603;29;20190;-79
2022/10/10 01:59:01;;;;;;;7.53;5.80;;;;;;;;;;4855548;29;20202;-80
2022/10/10 02:01:42;;;;;;;6.50;5.50;;;;;;;;;;4853732;29;20251;-80
2022/10/10 02:04:13;;;;;;;6.40;5.70;;;;;;;;;;4856926;29;20197;-76
2022/10/10 02:06:42;;;;;;;7.37;5.90;;;;;;;;;;4846350;29;20190;-76
2022/10/10 02:09:11;;;;;;;9.80;6.23;;;;;;;;;;4846330;29;20189;-77
2022/10/10 02:11:38;;;;;;;8.43;6.07;;;;;;;;;;4850725;29;20203;-80
2022/10/10 02:14:08;;;;;;;6.67;5.60;;;;;;;;;;4857722;29;20205;-80
2022/10/10 02:16:37;;;;;;;6.97;5.50;;;;;;;;;;4846221;29;20183;-80
2022/10/10 02:19:06;;;;;;;8.13;6.57;;;;;;;;;;4845483;29;20286;-80
2022/10/10 02:21:32;;;;;;;8.97;6.23;;;;;;;;;;4862411;29;20197;-80
2022/10/10 02:24:04;;;;;;;8.33;5.63;;;;;;;;;;4827971;29;20281;-80
2022/10/10 02:26:31;;;;;;;8.63;5.70;;;;;;;;;;4862318;29;20234;-80
2022/10/10 02:28:59;;;;;;;8.53;5.80;;;;;;;;;;4845210;29;20199;-81
2022/10/10 02:31:34;;;;;;;7.30;6.10;;;;;;;;;;4845713;29;20182;-81
2022/10/10 02:34:04;;;;;;;6.57;5.50;;;;;;;;;;4845812;29;20220;-81
2022/10/10 02:36:30;;;;;;;9.27;6.10;;;;;;;;;;4861539;29;20187;-82
2022/10/10 02:39:00;;;;;;;8.17;5.37;;;;;;;;;;4831065;29;20183;-81
2022/10/10 02:41:27;;;;;;;6.13;5.53;;;;;;;;;;4828238;29;20202;-79
2022/10/10 02:43:53;;;;;;;8.53;5.60;;;;;;;;;;4825557;29;20230;-79
2022/10/10 02:46:19;;;;;;;6.80;5.83;;;;;;;;;;4867499;29;20218;-80
2022/10/10 02:48:45;;;;;;;6.93;5.83;;;;;;;;;;4863786;29;20183;-80
2022/10/10 02:51:12;;;;;;;8.20;5.87;;;;;;;;;;4830913;29;20202;-81
2022/10/10 02:53:38;;;;;;;9.73;5.90;;;;;;;;;;4819587;29;20235;-80
2022/10/10 02:56:05;;;;;;;6.60;5.57;;;;;;;;;;4841085;29;20190;-81
2022/10/10 02:58:31;;;;;;;6.77;5.47;;;;;;;;;;4861674;29;20265;-81
2022/10/10 03:00:57;;;;;;;6.63;5.93;;;;;;;;;;4850011;29;20226;-81
2022/10/10 03:03:24;;;;;;;7.23;5.83;;;;;;;;;;4845008;29;20222;-81
2022/10/10 03:05:50;;;;;;;7.07;5.83;;;;;;;;;;4860914;29;20246;-80
2022/10/10 03:08:16;;;;;;;6.47;5.70;;;;;;;;;;4862046;29;20183;-80
2022/10/10 03:10:42;;;;;;;8.07;6.07;;;;;;;;;;4861286;29;20190;-80
2022/10/10 03:13:08;;;;;;;6.73;5.60;;;;;;;;;;4844852;29;20197;-80
2022/10/10 03:15:34;;;;;;;8.03;6.03;;;;;;;;;;4845165;29;20250;-80
2022/10/10 03:18:00;;;;;;;8.80;5.90;;;;;;;;;;4845228;29;20231;-88
2022/10/10 03:20:26;;;;;;;6.40;5.80;;;;;;;;;;4840807;29;20195;-88
2022/10/10 03:22:52;;;;;;;6.67;5.70;;;;;;;;;;4858086;29;20202;-88
2022/10/10 03:25:18;;;;;;;7.03;5.47;;;;;;;;;;4865732;29;20270;-88
2022/10/10 03:27:44;;;;;;;13.87;6.40;;;;;;;;;;4830183;29;20269;-88
2022/10/10 03:30:10;;;;;;;7.13;6.07;;;;;;;;;;4828361;29;20282;-87
2022/10/10 03:32:36;;;;;;;7.30;5.83;;;;;;;;;;4868204;29;20211;-87
2022/10/10 03:35:06;;;;;;;7.83;6.03;;;;;;;;;;4872485;29;20179;-80
2022/10/10 03:37:32;;;;;;;8.07;5.73;;;;;;;;;;4829773;29;20191;-80
2022/10/10 03:39:58;;;;;;;7.37;6.00;;;;;;;;;;4841828;29;20202;-80
2022/10/10 03:42:24;;;;;;;7.63;5.83;;;;;;;;;;4844736;29;20223;-79
2022/10/10 03:44:50;;;;;;;6.93;5.47;;;;;;;;;;4859697;29;20243;-78
2022/10/10 03:47:16;;;;;;;6.93;5.97;;;;;;;;;;4829655;29;20187;-80
2022/10/10 03:49:42;;;;;;;9.30;6.43;;;;;;;;;;4829671;29;20190;-80
2022/10/10 03:52:08;;;;;;;8.10;5.93;;;;;;;;;;4829881;29;20197;-77
2022/10/10 03:54:34;;;;;;;6.73;5.90;;;;;;;;;;4845162;29;20238;-77
2022/10/10 03:57:00;;;;;;;7.83;5.83;;;;;;;;;;4826384;29;20193;-76
2022/10/10 03:59:26;;;;;;;8.87;6.63;;;;;;;;;;4842385;29;20274;-77
2022/10/10 04:01:52;;;;;;;9.13;5.97;;;;;;;;;;4844495;29;20205;-76
2022/10/10 04:04:18;;;;;;;9.90;5.97;;;;;;;;;;4829587;29;20197;-77
2022/10/10 04:06:44;;;;;;;7.03;5.67;;;;;;;;;;4861224;29;20239;-77
2022/10/10 04:09:13;;;;;;;7.60;5.77;;;;;;;;;;4828797;29;20194;-79
2022/10/10 04:11:39;;;;;;;8.87;6.20;;;;;;;;;;4830087;29;20201;-87
2022/10/10 04:14:08;;;;;;;7.20;6.30;;;;;;;;;;4844976;29;20187;-86
2022/10/10 04:16:34;;;;;;;6.67;6.00;;;;;;;;;;4845180;29;20187;-86
2022/10/10 04:19:00;;;;;;;8.53;6.00;;;;;;;;;;4844623;29;20186;-87
2022/10/10 04:21:26;;;;;;;8.00;6.37;;;;;;;;;;4828430;29;20179;-86
2022/10/10 04:23:52;;;;;;;8.20;6.10;;;;;;;;;;4821021;29;20187;-77
2022/10/10 04:26:18;;;;;;;9.00;6.20;;;;;;;;;;4829361;29;20226;-77
2022/10/10 04:28:44;;;;;;;8.47;6.47;;;;;;;;;;4837529;29;20283;-76
2022/10/10 04:31:10;;;;;;;8.80;6.03;;;;;;;;;;4852828;29;20178;-77
2022/10/10 04:33:36;;;;;;;8.93;6.50;;;;;;;;;;4848148;29;20189;-76
2022/10/10 04:36:02;;;;;;;9.47;6.47;;;;;;;;;;4847897;29;20218;-76
2022/10/10 04:38:28;;;;;;;7.10;6.17;;;;;;;;;;4833163;29;20210;-76
2022/10/10 04:40:54;;;;;;;6.63;5.30;;;;;;;;;;4831904;29;20473;-87
2022/10/10 04:43:20;;;;;;;9.38;7.70;;;;;;;;;;4862944;29;20440;-87
2022/10/10 04:45:46;;;;;;;7.73;6.77;;;;;;;;;;4831875;29;20260;-87
2022/10/10 04:48:13;;;;;;;6.97;6.20;;;;;;;;;;4847319;29;20278;-87
2022/10/10 04:50:39;;;;;;;9.83;6.43;;;;;;;;;;4863618;29;20187;-87
2022/10/10 04:53:05;;;;;;;9.40;6.30;;;;;;;;;;4828955;29;20263;-87
2022/10/10 04:55:31;;;;;;;8.70;6.20;;;;;;;;;;4829078;29;20196;-87
2022/10/10 04:57:57;;;;;;;8.03;6.40;;;;;;;;;;4845070;29;20277;-79
2022/10/10 05:00:23;;;;;;;10.03;6.67;;;;;;;;;;4844622;29;20224;-79
2022/10/10 05:02:49;;;;;;;9.10;6.70;;;;;;;;;;4844660;29;20214;-79
2022/10/10 05:05:15;;;;;;;8.63;5.90;;;;;;;;;;4820073;29;20231;-79
2022/10/10 05:07:41;;;;;;;9.97;6.20;;;;;;;;;;4811160;29;20184;-79
2022/10/10 05:10:07;;;;;;;9.33;7.00;;;;;;;;;;4829605;29;20248;-79
2022/10/10 05:12:33;;;;;;;8.47;6.90;;;;;;;;;;4828510;29;20208;-87
2022/10/10 05:14:59;;;;;;;9.00;7.13;;;;;;;;;;4827046;29;20437;-80
2022/10/10 05:17:25;;;;;;;7.67;6.73;;;;;;;;;;4843695;29;20187;-80
2022/10/10 05:19:52;;;;;;;9.93;6.53;;;;;;;;;;4828858;29;20195;-80
2022/10/10 05:22:18;;;;;;;8.53;6.10;;;;;;;;;;4843776;29;20190;-79
2022/10/10 05:24:44;;;;;;;9.83;6.53;;;;;;;;;;4843880;29;20294;-79
2022/10/10 05:27:10;;;;;;;6.93;6.23;;;;;;;;;;4858679;29;20191;-79
2022/10/10 05:29:36;;;;;;;7.50;6.40;;;;;;;;;;4858751;29;20251;-79
2022/10/10 05:32:02;;;;;;;7.37;6.63;;;;;;;;;;4844631;29;20274;-79
2022/10/10 05:34:28;;;;;;;8.03;6.30;;;;;;;;;;4858567;29;20219;-79
2022/10/10 05:36:55;;;;;;;8.50;6.30;;;;;;;;;;4828543;29;20199;-79
2022/10/10 05:39:21;;;;;;;6.97;6.23;;;;;;;;;;4844673;29;20262;-80
2022/10/10 05:41:47;;;;;;;9.60;6.20;;;;;;;;;;4858648;29;20286;-80
2022/10/10 05:44:13;;;;;;;7.97;5.93;;;;;;;;;;4858435;29;20278;-80
2022/10/10 05:46:39;;;;;;;8.77;6.60;;;;;;;;;;4844409;29;20238;-87
2022/10/10 05:49:05;;;;;;;7.13;6.07;;;;;;;;;;4828182;29;20188;-79
2022/10/10 05:51:31;;;;;;;7.33;6.30;;;;;;;;;;4843443;29;20188;-79
2022/10/10 05:53:58;;;;;;;9.53;6.30;;;;;;;;;;4856663;29;20262;-79
2022/10/10 05:56:24;;;;;;;6.53;5.83;;;;;;;;;;4846237;29;20198;-79
2022/10/10 05:58:50;;;;;;;8.43;6.67;;;;;;;;;;4861531;29;20297;-79
2022/10/10 06:01:16;;;;;;;7.43;6.73;;;;;;;;;;4861477;29;20191;-79
2022/10/10 06:03:42;;;;;;;8.27;6.73;;;;;;;;;;4862352;29;20206;-79
2022/10/10 06:06:08;;;;;;;12.80;6.90;;;;;;;;;;4846270;29;20218;-87
2022/10/10 06:08:34;;;;;;;8.50;7.47;;;;;;;;;;4845646;29;20435;-87
2022/10/10 06:11:06;;;;;;;8.37;6.40;;;;;;;;;;4846079;29;20186;-86
2022/10/10 06:13:33;;;;;;;9.93;6.90;;;;;;;;;;4861271;29;20179;-87
2022/10/10 06:15:59;;;;;;;7.93;6.63;;;;;;;;;;4862404;29;20292;-86
2022/10/10 06:18:26;;;;;;;10.10;6.90;;;;;;;;;;4862256;29;20218;-86
2022/10/10 06:20:52;;;;;;;9.87;7.07;;;;;;;;;;4862294;29;20175;-79
2022/10/10 06:23:19;;;;;;;8.03;6.77;;;;;;;;;;4846047;29;20191;-79
2022/10/10 06:25:45;;;;;;;18.97;7.30;;;;;;;;;;4861193;29;20222;-79
2022/10/10 06:28:11;;;;;;;9.67;6.80;;;;;;;;;;4861965;29;20175;-79
2022/10/10 06:30:41;;;;;;;8.13;7.27;;;;;;;;;;4861119;29;20283;-79
2022/10/10 06:33:07;;;;;;;10.57;7.67;;;;;;;;;;4845818;29;20273;-79
2022/10/10 06:35:33;;;;;;;9.37;7.47;;;;;;;;;;4845796;29;20216;-80
2022/10/10 06:37:59;;;;;;;8.90;6.83;;;;;;;;;;4862042;29;20186;-79
2022/10/10 06:40:25;;;;;;;9.40;6.90;;;;;;;;;;4845052;29;20435;-79
2022/10/10 06:42:51;;;;;;;9.65;6.90;;;;;;;;;;4861751;29;20463;-76
2022/10/10 06:45:17;;;;;;;11.47;7.70;;;;;;;;;;4846294;29;20262;-76
2022/10/10 06:47:43;;;;;;;9.77;7.33;;;;;;;;;;4825218;29;20265;-76
2022/10/10 06:50:10;;;;;;;10.30;7.37;;;;;;;;;;4849687;29;20187;-77
2022/10/10 06:52:36;;;;;;;10.50;7.53;;;;;;;;;;4828595;29;20242;-76
2022/10/10 06:55:02;;;;;;;11.13;7.47;;;;;;;;;;4875704;29;20194;-77
2022/10/10 06:57:28;;;;;;;11.93;7.90;;;;;;;;;;4829356;29;20190;-77
2022/10/10 06:59:54;;;;;;;11.20;7.90;;;;;;;;;;4830538;29;20201;-76
2022/10/10 07:02:21;;;;;;;10.02;7.85;;;;;;;;;;4844552;29;20438;-76
2022/10/10 07:04:47;;;;;;;12.83;7.57;;;;;;;;;;4861420;29;20219;-76
2022/10/10 07:07:13;;;;;;;9.63;7.97;;;;;;;;;;4830133;29;20187;-76
2022/10/10 07:09:39;;;;;;;11.47;7.77;;;;;;;;;;4830235;29;20193;-77
2022/10/10 07:12:05;;;;;;;13.17;7.77;;;;;;;;;;4861658;29;20257;-80
2022/10/10 07:14:31;;;;;;;11.50;8.10;;;;;;;;;;4861525;29;20215;-80
2022/10/10 07:16:57;;;;;;;11.60;8.30;;;;;;;;;;4875834;29;20179;-80
2022/10/10 07:19:23;;;;;;;10.90;7.27;;;;;;;;;;4861424;29;20269;-80
2022/10/10 07:21:50;;;;;;;11.47;8.07;;;;;;;;;;4875976;29;20259;-80
2022/10/10 07:24:16;;;;;;;10.30;8.57;;;;;;;;;;4861263;29;20186;-80
2022/10/10 07:26:42;;;;;;;12.03;9.40;;;;;;;;;;4875721;29;20189;-80
2022/10/10 07:29:08;;;;;;;14.30;9.43;;;;;;;;;;4829959;29;20293;-80
2022/10/10 07:31:34;;;;;;;14.80;9.30;;;;;;;;;;4860043;29;20186;-80
2022/10/10 07:34:00;;;;;;;12.73;8.87;;;;;;;;;;4860521;29;20189;-80
2022/10/10 07:36:26;;;;;;;11.30;10.00;;;;;;;;;;4859640;29;20494;-80
2022/10/10 07:38:53;;;;;;;12.40;9.07;;;;;;;;;;4845017;29;20411;-80
2022/10/10 07:41:20;;;;;;;13.35;10.15;;;;;;;;;;4846051;29;20456;-80
2022/10/10 07:43:46;;;;;;;12.98;10.18;;;;;;;;;;4855236;29;20493;-80
2022/10/10 07:46:16;;;;;;;14.18;10.60;;;;;;;;;;4853190;29;20444;-79
2022/10/10 07:48:43;;;;;;;11.60;9.03;;;;;;;;;;4872599;29;20186;-77
2022/10/10 07:51:09;;;;;;;17.38;9.75;;;;;;;;;;4847728;29;20422;-77
2022/10/10 07:53:35;;;;;;;13.55;9.52;;;;;;;;;;4859257;29;20443;-77
2022/10/10 07:56:03;;;;;;;13.70;10.68;;;;;;;;;;4847973;29;20432;-77
2022/10/10 07:58:29;;;;;;;12.90;9.55;;;;;;;;;;4860031;29;20467;-77
2022/10/10 08:01:06;;;;;;;13.60;10.07;;;;;;;;;;4843860;29;20459;-79
2022/10/10 08:03:32;;;;;;;14.73;10.43;;;;;;;;;;4859710;29;20506;-79
2022/10/10 08:05:58;;;;;;;14.95;9.80;;;;;;;;;;4900723;23;20477;-77
2022/10/10 08:08:24;;;;;;;10.98;9.70;;;;;;;;;;4866291;29;20441;-77
2022/10/10 08:10:50;;;;;;;12.50;9.10;;;;;;;;;;4882603;29;20186;-77
2022/10/10 08:13:16;;;;;;;12.00;9.40;;;;;;;;;;4882115;29;20469;-77
2022/10/10 08:15:42;;;;;;;11.83;8.87;;;;;;;;;;4866883;29;20189;-77
2022/10/10 08:18:08;;;;;;;11.97;8.17;;;;;;;;;;4866767;29;20182;-87
2022/10/10 08:20:34;;;;;;;11.52;8.20;;;;;;;;;;4882101;29;20457;-87
2022/10/10 08:23:00;;;;;;;11.02;8.10;;;;;;;;;;4866725;29;20438;-87
2022/10/10 08:25:26;;;;;;;10.88;8.18;;;;;;;;;;4865875;29;20502;-87
2022/10/10 08:27:52;;;;;;;10.55;7.85;;;;;;;;;;4882458;29;20434;-87
2022/10/10 08:30:18;;;;;;;9.73;7.90;;;;;;;;;;4880201;29;20485;-87
2022/10/10 08:32:44;;;;;;;11.40;7.33;;;;;;;;;;4866367;29;20249;-88
2022/10/10 08:35:10;;;;;;;11.27;8.00;;;;;;;;;;4866194;29;20186;-80
2022/10/10 08:37:36;;;;;;;13.00;7.97;;;;;;;;;;4880334;29;20192;-80
2022/10/10 08:40:03;;;;;;;12.10;8.23;;;;;;;;;;4866439;29;20259;-80
2022/10/10 08:42:34;;;;;;;10.23;7.67;;;;;;;;;;4883487;29;20260;-80
2022/10/10 08:45:10;;;;;;;13.27;8.90;;;;;;;;;;4881378;29;20434;-80
2022/10/10 08:47:51;;;;;;;11.32;8.70;;;;;;;;;;4877213;29;20447;-80
2022/10/10 08:50:38;;;;;;;10.27;8.38;;;;;;;;;;4863248;29;20459;-80
2022/10/10 08:53:18;;;;;;;12.90;8.07;;;;;;;;;;4862348;29;20422;-77
2022/10/10 08:55:44;;;;;;;12.07;7.70;;;;;;;;;;4862108;29;20431;-77
2022/10/10 08:58:29;;;;;;;12.65;7.80;;;;;;;;;;4847326;29;20449;-77
2022/10/10 09:01:07;;;;;;;10.07;7.13;;;;;;;;;;4863407;29;20427;-77
2022/10/10 09:03:38;;;;;;;10.18;7.43;;;;;;;;;;4861879;29;20427;-77
2022/10/10 09:06:23;;;;;;;11.93;7.70;;;;;;;;;;4861486;29;20456;-77
2022/10/10 09:09:08;;;;;;;12.27;6.97;;;;;;;;;;4862911;29;20189;-80
2022/10/10 09:11:48;;;;;;;10.87;7.07;;;;;;;;;;4864016;29;20195;-81
2022/10/10 09:14:20;;;;;;;10.33;7.07;;;;;;;;;;4863753;29;20178;-81
2022/10/10 09:16:55;;;;;;;12.57;7.15;;;;;;;;;;4862763;29;20422;-81
2022/10/10 09:19:40;;;;;;;9.95;7.13;;;;;;;;;;4863736;29;20501;-81
2022/10/10 09:22:10;;;;;;;10.90;6.70;;;;;;;;;;4861723;29;20412;-81
2022/10/10 09:24:40;;;;;;;9.30;7.10;;;;;;;;;;4862227;29;20515;-77
2022/10/10 09:27:10;;;;;;;9.57;6.38;;;;;;;;;;4862383;29;20466;-77
2022/10/10 09:29:38;;;;;;;11.77;6.70;;;;;;;;;;4881185;29;20197;-78
2022/10/10 09:32:21;;;;;;;11.93;6.77;;;;;;;;;;4881524;29;20181;-77
2022/10/10 09:34:54;;;;;;;13.57;7.60;;;;;;;;;;4866080;29;20423;-77
2022/10/10 09:37:28;;;;;;;11.13;6.80;;;;;;;;;;4862332;29;20191;-81
2022/10/10 09:40:02;;;;;;;12.43;7.43;;;;;;;;;;4862718;29;20439;-77
2022/10/10 09:42:33;;;;;;;10.93;6.67;;;;;;;;;;4862187;29;20182;-77
2022/10/10 09:44:59;;;;;;;10.57;7.05;;;;;;;;;;4861170;29;20479;-77
2022/10/10 09:47:25;;;;;;;10.57;7.15;;;;;;;;;;4861792;29;20476;-77
2022/10/10 09:49:51;;;;;;;12.00;7.20;;;;;;;;;;4845996;29;20419;-77
2022/10/10 09:52:30;;;;;;;12.30;7.55;;;;;;;;;;4845973;29;20427;-77
2022/10/10 09:55:01;;;;;;;11.70;7.47;;;;;;;;;;4860931;29;20504;-77
2022/10/10 09:57:38;;;;;;;13.05;6.90;;;;;;;;;;4864909;29;20447;-87
2022/10/10 10:00:27;;;;;;;8.93;6.90;;;;;;;;;;4879705;29;20422;-88
2022/10/10 10:03:22;;;;;;;12.02;6.47;;;;;;;;;;4870177;29;20502;-88
2022/10/10 10:06:01;;;;;;;11.15;7.10;;;;;;;;;;4863621;29;20514;-88
2022/10/10 10:08:34;;;;;;;13.23;7.15;;;;;;;;;;4864320;29;20419;-77
2022/10/10 10:11:01;;;;;;;12.13;7.07;;;;;;;;;;4879445;29;20418;-77
2022/10/10 10:13:32;;;;;;;11.20;6.75;;;;;;;;;;4880325;29;20429;-81
2022/10/10 10:16:00;;;;;;;10.73;6.70;;;;;;;;;;4879200;29;20406;-80
2022/10/10 10:18:27;;;;;;;11.43;6.65;;;;;;;;;;4879403;29;20450;-80
2022/10/10 10:21:02;;;;;;;11.77;6.90;;;;;;;;;;4880516;29;20422;-80
2022/10/10 10:23:32;;;;;;;10.35;6.70;;;;;;;;;;4879327;29;20422;-79
2022/10/10 10:26:05;;;;;;;13.52;6.70;;;;;;;;;;4879040;29;20449;-80
2022/10/10 10:28:31;;;;;;;9.73;6.63;;;;;;;;;;4862936;29;20430;-80
2022/10/10 10:30:58;;;;;;;13.30;7.38;;;;;;;;;;4879134;29;20450;-80
2022/10/10 10:33:24;;;;;;;12.40;7.10;;;;;;;;;;4863785;29;20429;-80
2022/10/10 10:36:09;;;;;;;11.25;6.85;;;;;;;;;;4872496;29;20450;-80
2022/10/10 10:38:55;;;;;;;11.07;7.35;;;;;;;;;;4860302;29;20518;-80
2022/10/10 10:42:00;;;;;;;9.73;7.20;;;;;;;;;;4860168;29;20463;-80
2022/10/10 10:44:32;;;;;;;12.05;7.40;;;;;;;;;;4807860;29;20430;-80
2022/10/10 10:47:03;;;;;;;11.60;7.38;;;;;;;;;;4807718;29;20471;-80
2022/10/10 10:49:42;;;;;;;10.13;7.55;;;;;;;;;;4844412;29;20424;-80
2022/10/10 10:52:08;;;;;;;11.10;7.13;;;;;;;;;;4860091;29;20455;-80
2022/10/10 10:54:53;;;;;;;10.10;7.50;;;;;;;;;;4860226;29;20419;-80
2022/10/10 10:57:41;;;;;;;10.95;7.70;;;;;;;;;;4878900;29;20474;-80
2022/10/10 11:00:11;;;;;;;13.15;7.80;;;;;;;;;;4878835;29;20501;-80
2022/10/10 11:02:37;;;;;;;10.73;7.07;;;;;;;;;;4867300;29;20451;-80
2022/10/10 11:05:22;;;;;;;10.82;6.85;;;;;;;;;;4875638;29;20462;-77
2022/10/10 11:08:00;;;;;;;10.17;6.17;;;;;;;;;;4878471;29;20481;-78
2022/10/10 11:10:45;;;;;;;8.27;6.30;;;;;;;;;;4867032;29;20428;-78
2022/10/10 11:13:31;;;;;;;12.18;6.00;;;;;;;;;;4874931;29;20511;-78
2022/10/10 11:16:09;;;;;;;11.55;5.70;;;;;;;;;;4839010;29;20474;-78
2022/10/10 11:18:38;;;;;;;9.20;5.45;;;;;;;;;;4878336;29;20475;-78
2022/10/10 11:21:16;;;;;;;11.07;6.00;;;;;;;;;;4862318;29;20416;-82
2022/10/10 11:23:49;;;;;;;11.50;6.50;;;;;;;;;;4872545;29;20428;-82
2022/10/10 11:26:34;;;;;;;9.60;6.20;;;;;;;;;;4869912;29;20478;-82
2022/10/10 11:29:03;;;;;;;11.82;6.15;;;;;;;;;;4862443;29;20504;-82
2022/10/10 11:31:32;;;;;;;10.23;6.05;;;;;;;;;;4860078;29;20431;-82
2022/10/10 11:34:01;;;;;;;11.13;6.37;;;;;;;;;;4863717;29;20529;-81
2022/10/10 11:36:31;;;;;;;11.20;6.45;;;;;;;;;;4877834;29;20472;-82
2022/10/10 11:39:16;;;;;;;10.32;6.45;;;;;;;;;;4864095;29;20521;-89
2022/10/10 11:41:51;;;;;;;9.48;6.57;;;;;;;;;;4865347;29;20438;-88
2022/10/10 11:44:17;;;;;;;11.43;6.15;;;;;;;;;;4869989;29;20434;-89
2022/10/10 11:46:54;;;;;;;8.73;5.70;;;;;;;;;;4877142;29;20463;-88
2022/10/10 11:49:35;;;;;;;10.60;6.28;;;;;;;;;;4867203;29;20425;-89
2022/10/10 11:52:31;;;;;;;10.95;6.32;;;;;;;;;;4873653;29;20423;-88
2022/10/10 11:54:57;;;;;;;10.90;6.22;;;;;;;;;;4863121;29;20423;-77
2022/10/10 11:57:29;;;;;;;9.13;6.03;;;;;;;;;;4878501;29;20467;-78
2022/10/10 12:00:12;;;;;;;8.98;6.25;;;;;;;;;;4862569;29;20468;-78
2022/10/10 12:02:41;;;;;;;11.73;6.53;;;;;;;;;;4875196;29;20422;-78
2022/10/10 12:05:18;;;;;;;10.25;6.47;;;;;;;;;;4863037;29;20451;-78
2022/10/10 12:07:58;;;;;;;12.80;6.78;;;;;;;;;;4875296;29;20435;-77
2022/10/10 12:10:27;;;;;;;10.63;6.38;;;;;;;;;;4862711;29;20455;-78
2022/10/10 12:12:55;;;;;;;10.98;7.03;;;;;;;;;;4875863;29;20430;-77
2022/10/10 12:15:27;;;;;;;13.32;6.97;;;;;;;;;;4865676;29;20510;-77
2022/10/10 12:17:53;;;;;;;10.45;7.03;;;;;;;;;;4873247;29;20442;-78
2022/10/10 12:20:25;;;;;;;10.38;6.50;;;;;;;;;;4872359;29;20410;-77
2022/10/10 12:23:06;;;;;;;13.13;7.25;;;;;;;;;;4867678;29;20450;-77
2022/10/10 12:25:41;;;;;;;10.07;6.90;;;;;;;;;;4863386;29;20443;-77
2022/10/10 12:28:13;;;;;;;10.48;6.60;;;;;;;;;;4867759;29;20459;-77
2022/10/10 12:30:54;;;;;;;12.90;7.30;;;;;;;;;;4877606;29;20477;-78
2022/10/10 12:33:42;;;;;;;13.38;6.93;;;;;;;;;;4878083;29;20420;-78
2022/10/10 12:36:17;;;;;;;11.20;6.80;;;;;;;;;;4869940;29;20521;-77
2022/10/10 12:39:04;;;;;;;13.25;6.78;;;;;;;;;;4867242;29;20443;-78
2022/10/10 12:41:39;;;;;;;11.77;6.45;;;;;;;;;;4866929;29;20418;-78
2022/10/10 12:44:20;;;;;;;12.80;7.00;;;;;;;;;;4872068;29;20431;-81
2022/10/10 12:46:49;;;;;;;13.23;6.45;;;;;;;;;;4875472;29;20481;-81
2022/10/10 12:49:18;;;;;;;14.35;6.70;;;;;;;;;;4864903;29;20448;-81
2022/10/10 12:51:52;;;;;;;11.30;6.53;;;;;;;;;;4873774;29;20447;-81
2022/10/10 12:54:22;;;;;;;13.13;6.63;;;;;;;;;;4871827;29;20437;-81
2022/10/10 12:56:50;;;;;;;11.57;6.50;;;;;;;;;;4866427;29;20430;-81
2022/10/10 12:59:18;;;;;;;13.95;6.72;;;;;;;;;;4877077;29;20497;-81
2022/10/10 13:01:46;;;;;;;11.73;6.85;;;;;;;;;;4867125;29;20422;-78
2022/10/10 13:04:15;;;;;;;11.60;7.03;;;;;;;;;;4870648;29;20432;-78
2022/10/10 13:06:44;;;;;;;11.10;7.25;;;;;;;;;;4874443;29;20493;-78
2022/10/10 13:09:21;;;;;;;11.93;7.10;;;;;;;;;;4864733;29;20427;-78
2022/10/10 13:12:06;;;;;;;12.40;7.63;;;;;;;;;;4874132;29;20419;-78
2022/10/10 13:14:40;;;;;;;13.63;7.68;;;;;;;;;;4873139;29;20411;-78
2022/10/10 13:17:26;;;;;;;15.70;8.35;;;;;;;;;;4864812;29;20427;-78
2022/10/10 13:19:53;;;;;;;12.38;7.57;;;;;;;;;;4873779;29;20487;-81
2022/10/10 13:22:19;;;;;;;15.93;7.90;;;;;;;;;;4871755;29;20429;-82
2022/10/10 13:24:46;;;;;;;14.93;8.10;;;;;;;;;;4865992;29;20471;-81
2022/10/10 13:27:15;;;;;;;16.37;8.30;;;;;;;;;;4861290;29;20428;-81
2022/10/10 13:29:41;;;;;;;16.67;8.15;;;;;;;;;;4866514;29;20413;-81
2022/10/10 13:32:18;;;;;;;15.38;8.82;;;;;;;;;;4861510;29;20424;-81
2022/10/10 13:34:55;;;;;;;13.90;8.35;;;;;;;;;;4875556;29;20410;-80
2022/10/10 13:37:22;;;;;;;14.63;8.52;;;;;;;;;;4865659;29;20406;-80
2022/10/10 13:39:49;;;;;;;13.75;8.43;;;;;;;;;;4874495;29;20475;-80
2022/10/10 13:42:30;;;;;;;13.50;8.80;;;;;;;;;;4870466;29;20490;-80
2022/10/10 13:44:59;;;;;;;16.17;8.60;;;;;;;;;;4864835;29;20448;-80
2022/10/10 13:47:48;;;;;;;17.08;8.63;;;;;;;;;;4861543;29;20436;-80
2022/10/10 13:50:19;;;;;;;13.30;8.65;;;;;;;;;;4870258;29;20441;-80
2022/10/10 13:52:45;;;;;;;13.60;9.30;;;;;;;;;;4866979;29;20423;-88
2022/10/10 13:55:27;;;;;;;13.93;8.70;;;;;;;;;;4876190;29;20425;-88
2022/10/10 13:57:53;;;;;;;15.38;8.77;;;;;;;;;;4868675;29;20644;-88
2022/10/10 14:00:21;;;;;;;14.68;8.43;;;;;;;;;;4870327;29;20430;-88
2022/10/10 14:02:47;;;;;;;12.48;8.25;;;;;;;;;;4875166;29;20462;-88
2022/10/10 14:05:40;;;;;;;14.50;9.40;;;;;;;;;;4870100;29;20458;-88
2022/10/10 14:08:13;;;;;;;15.10;9.52;;;;;;;;;;4869283;29;20424;-77
2022/10/10 14:10:40;;;;;;;14.63;9.65;;;;;;;;;;4873247;29;20502;-78
2022/10/10 14:13:13;;;;;;;11.82;8.52;;;;;;;;;;4861948;29;20456;-77
2022/10/10 14:15:43;;;;;;;14.00;8.40;;;;;;;;;;4874973;29;20420;-77
2022/10/10 14:18:29;;;;;;;12.57;8.35;;;;;;;;;;4869374;29;20426;-77
2022/10/10 14:20:55;;;;;;;13.20;8.90;;;;;;;;;;4864148;29;20431;-78
2022/10/10 14:23:21;;;;;;;12.73;8.90;;;;;;;;;;4860605;29;20464;-77
2022/10/10 14:25:48;;;;;;;17.85;9.65;;;;;;;;;;4866655;29;20446;-80
2022/10/10 14:28:19;;;;;;;15.80;10.20;;;;;;;;;;4860331;29;20434;-80
2022/10/10 14:30:45;;;;;;;16.13;9.03;;;;;;;;;;4871375;29;20246;-80
2022/10/10 14:33:12;;;;;;;16.90;9.37;;;;;;;;;;4847657;29;20210;-80
2022/10/10 14:35:38;;;;;;;16.10;9.83;;;;;;;;;;4862726;29;20183;-79
2022/10/10 14:38:04;;;;;;;12.50;9.50;;;;;;;;;;4879399;29;20186;-79
2022/10/10 14:40:31;;;;;;;12.80;9.90;;;;;;;;;;4867875;29;20193;-87
2022/10/10 14:42:57;;;;;;;15.37;9.73;;;;;;;;;;4876931;29;20312;-88
2022/10/10 14:45:23;;;;;;;17.40;10.17;;;;;;;;;;4876347;29;20218;-88
2022/10/10 14:47:50;;;;;;;14.13;9.80;;;;;;;;;;4851828;29;20268;-88
2022/10/10 14:50:22;;;;;;;13.80;9.33;;;;;;;;;;4854961;29;20191;-80
2022/10/10 14:52:48;;;;;;;13.20;7.90;;;;;;;;;;4871253;29;20215;-79